createdAt,value
2023-02-22T00:01:50.582Z,8.44
2023-02-22T00:04:21.116Z,8.42
2023-02-22T00:06:48.891Z,8.42
2023-02-22T00:09:20.470Z,8.41
2023-02-22T00:11:48.755Z,8.41
2023-02-22T00:14:20.211Z,8.42
2023-02-22T00:16:47.251Z,8.42
2023-02-22T00:19:14.565Z,8.41
2023-02-22T00:21:41.777Z,8.42
2023-02-22T00:24:23.034Z,8.41
2023-02-22T00:26:57.678Z,8.43
2023-02-22T00:29:25.484Z,8.43
2023-02-22T00:31:52.686Z,8.43
2023-02-22T00:34:19.730Z,8.44
2023-02-22T00:36:48.632Z,8.45
2023-02-22T00:39:15.954Z,8.44
2023-02-22T00:41:43.437Z,8.44
2023-02-22T00:44:10.716Z,8.44
2023-02-22T00:46:37.946Z,8.45
2023-02-22T00:49:05.251Z,8.47
2023-02-22T00:51:33.809Z,8.49
2023-02-22T00:54:00.710Z,8.51
2023-02-22T00:56:27.780Z,8.54
2023-02-22T00:58:54.946Z,8.54
2023-02-22T01:01:24.119Z,8.52
2023-02-22T01:03:51.600Z,8.47
2023-02-22T01:06:19.029Z,8.41
2023-02-22T01:08:47.013Z,8.37
2023-02-22T01:11:15.996Z,8.34
2023-02-22T01:13:45.264Z,8.30
2023-02-22T01:16:12.426Z,8.26
2023-02-22T01:18:39.712Z,8.19
2023-02-22T01:21:06.923Z,8.08
2023-02-22T01:23:33.973Z,8.01
2023-02-22T01:26:01.355Z,7.93
2023-02-22T01:28:29.155Z,7.84
2023-02-22T01:30:56.814Z,7.72
2023-02-22T01:33:23.760Z,7.64
2023-02-22T01:35:51.194Z,7.55
2023-02-22T01:38:18.387Z,7.45
2023-02-22T01:40:49.479Z,7.35
2023-02-22T01:43:28.048Z,7.28
2023-02-22T01:46:08.147Z,7.21
2023-02-22T01:48:38.722Z,7.13
2023-02-22T01:51:11.138Z,7.04
2023-02-22T01:53:50.822Z,6.94
2023-02-22T01:56:19.220Z,6.83
2023-02-22T01:58:50.927Z,6.75
2023-02-22T02:01:19.880Z,6.68
2023-02-22T02:03:49.123Z,6.59
2023-02-22T02:06:16.851Z,6.49
2023-02-22T02:09:14.768Z,6.38
2023-02-22T02:11:42.099Z,6.26
2023-02-22T02:14:10.551Z,6.20
2023-02-22T02:16:43.581Z,6.13
2023-02-22T02:19:39.788Z,6.07
2023-02-22T02:22:19.454Z,6.01
2023-02-22T02:25:05.093Z,5.96
2023-02-22T02:28:01.417Z,5.91
2023-02-22T02:30:59.620Z,5.85
2023-02-22T02:33:44.809Z,5.81
2023-02-22T02:36:17.565Z,5.77
2023-02-22T02:38:54.492Z,5.74
2023-02-22T02:41:33.690Z,5.71
2023-02-22T02:44:05.754Z,5.67
2023-02-22T02:46:37.236Z,5.64
2023-02-22T02:49:15.424Z,5.61
2023-02-22T02:51:47.241Z,5.55
2023-02-22T02:54:15.244Z,5.48
2023-02-22T02:56:45.265Z,5.43
2023-02-22T02:59:33.609Z,5.37
2023-02-22T03:02:30.866Z,5.31
2023-02-22T03:05:07.381Z,5.26
2023-02-22T03:07:49.938Z,5.23
2023-02-22T03:10:19.885Z,5.20
2023-02-22T03:13:05.063Z,5.16
2023-02-22T03:15:53.258Z,5.12
2023-02-22T03:18:42.813Z,5.08
2023-02-22T03:21:27.583Z,5.06
2023-02-22T03:24:10.272Z,5.03
2023-02-22T03:27:11.754Z,5.02
2023-02-22T03:29:43.220Z,5.01
2023-02-22T03:32:15.910Z,4.98
2023-02-22T03:34:52.595Z,4.94
2023-02-22T03:37:23.561Z,4.89
2023-02-22T03:39:54.725Z,4.84
2023-02-22T03:42:26.017Z,4.79
2023-02-22T03:44:57.831Z,4.75
2023-02-22T03:47:37.782Z,4.69
2023-02-22T03:50:35.707Z,4.63
2023-02-22T03:53:03.733Z,4.55
2023-02-22T03:55:31.417Z,4.50
2023-02-22T03:57:59.968Z,4.44
2023-02-22T04:00:30.583Z,4.39
2023-02-22T04:02:57.799Z,4.36
2023-02-22T04:05:26.073Z,4.34
2023-02-22T04:07:54.185Z,4.33
2023-02-22T04:10:21.307Z,4.31
2023-02-22T04:12:48.616Z,4.28
2023-02-22T04:15:18.540Z,4.27
2023-02-22T04:17:45.720Z,4.25
2023-02-22T04:20:13.606Z,4.23
2023-02-22T04:22:41.205Z,4.21
2023-02-22T04:25:08.629Z,4.19
2023-02-22T04:27:35.685Z,4.18
2023-02-22T04:30:02.863Z,4.16
2023-02-22T04:32:30.118Z,4.14
2023-02-22T04:34:57.108Z,4.14
2023-02-22T04:37:24.422Z,4.15
2023-02-22T04:39:51.632Z,4.15
2023-02-22T04:42:19.275Z,4.14
2023-02-22T04:44:46.168Z,4.12
2023-02-22T04:47:13.148Z,4.10
2023-02-22T04:49:40.002Z,4.07
2023-02-22T04:52:06.999Z,4.05
2023-02-22T04:54:34.213Z,4.03
2023-02-22T04:57:01.214Z,4.01
2023-02-22T04:59:28.356Z,4.00
2023-02-22T05:01:55.554Z,4.02
2023-02-22T05:04:22.758Z,4.03
2023-02-22T05:06:49.843Z,4.08
2023-02-22T05:09:16.882Z,4.13
2023-02-22T05:11:43.792Z,4.17
2023-02-22T05:14:10.892Z,4.24
2023-02-22T05:16:38.008Z,4.33
2023-02-22T05:19:04.962Z,4.42
2023-02-22T05:21:31.923Z,4.52
2023-02-22T05:23:58.946Z,4.59
2023-02-22T05:26:26.031Z,4.66
2023-02-22T05:28:53.440Z,4.72
2023-02-22T05:31:20.661Z,4.78
2023-02-22T05:33:48.405Z,4.83
2023-02-22T05:36:16.712Z,4.89
2023-02-22T05:38:45.088Z,4.97
2023-02-22T05:41:13.369Z,5.00
2023-02-22T05:43:41.045Z,5.03
2023-02-22T05:46:08.285Z,5.04
2023-02-22T05:48:35.245Z,5.05
2023-02-22T05:51:02.667Z,5.05
2023-02-22T05:53:29.443Z,5.05
2023-02-22T05:55:56.322Z,5.05
2023-02-22T05:58:23.749Z,5.04
2023-02-22T06:00:50.873Z,5.04
2023-02-22T06:03:17.890Z,5.05
2023-02-22T06:05:45.247Z,5.06
2023-02-22T06:08:12.278Z,5.06
2023-02-22T06:10:39.350Z,5.05
2023-02-22T06:13:06.849Z,5.06
2023-02-22T06:15:34.087Z,5.09
2023-02-22T06:18:01.840Z,5.13
2023-02-22T06:20:30.258Z,5.17
2023-02-22T06:22:59.022Z,5.20
2023-02-22T06:25:27.954Z,5.25
2023-02-22T06:27:54.893Z,5.33
2023-02-22T06:30:24.254Z,5.38
2023-02-22T06:32:51.423Z,5.43
2023-02-22T06:35:18.987Z,5.47
2023-02-22T06:37:45.782Z,5.51
2023-02-22T06:40:13.250Z,5.54
2023-02-22T06:42:40.383Z,5.56
2023-02-22T06:45:08.444Z,5.55
2023-02-22T06:47:39.760Z,5.55
2023-02-22T06:50:07.596Z,5.55
2023-02-22T06:52:34.576Z,5.57
2023-02-22T06:55:01.416Z,5.59
2023-02-22T06:57:28.271Z,5.65
2023-02-22T06:59:55.399Z,5.72
2023-02-22T07:02:22.252Z,5.80
2023-02-22T07:04:49.420Z,5.86
2023-02-22T07:07:16.852Z,5.90
2023-02-22T07:09:46.546Z,5.98
2023-02-22T07:12:13.705Z,6.09
2023-02-22T07:14:40.378Z,6.21
2023-02-22T07:17:07.635Z,6.32
2023-02-22T07:19:34.770Z,6.43
2023-02-22T07:22:01.879Z,6.50
2023-02-22T07:24:28.889Z,6.54
2023-02-22T07:27:01.338Z,6.59
2023-02-22T07:29:28.237Z,6.66
2023-02-22T07:31:55.726Z,6.72
2023-02-22T07:34:22.914Z,6.79
2023-02-22T07:36:49.998Z,6.87
2023-02-22T07:39:17.179Z,6.96
2023-02-22T07:41:44.105Z,7.04
2023-02-22T07:44:11.064Z,7.12
2023-02-22T07:46:37.825Z,7.23
2023-02-22T07:49:05.251Z,7.32
2023-02-22T07:51:33.091Z,7.40
2023-02-22T07:54:00.249Z,7.47
2023-02-22T07:56:26.928Z,7.53
2023-02-22T07:58:54.515Z,7.61
2023-02-22T08:01:21.624Z,7.69
2023-02-22T08:03:48.548Z,7.79
2023-02-22T08:06:15.459Z,7.91
2023-02-22T08:08:42.821Z,8.01
2023-02-22T08:11:09.949Z,8.12
2023-02-22T08:13:38.464Z,8.24
2023-02-22T08:16:05.731Z,8.37
2023-02-22T08:18:32.574Z,8.50
2023-02-22T08:20:59.277Z,8.65
2023-02-22T08:23:26.958Z,8.76
2023-02-22T08:25:54.426Z,8.87
2023-02-22T08:28:23.599Z,8.99
2023-02-22T08:30:51.749Z,9.10
2023-02-22T08:33:20.043Z,9.19
2023-02-22T08:35:51.690Z,9.25
2023-02-22T08:38:28.516Z,9.33
2023-02-22T08:40:55.935Z,9.42
2023-02-22T08:43:23.397Z,9.52
2023-02-22T08:45:51.561Z,9.63
2023-02-22T08:48:19.128Z,9.76
2023-02-22T08:50:46.668Z,9.87
2023-02-22T08:53:15.238Z,9.92
2023-02-22T08:55:43.093Z,9.94
2023-02-22T08:58:10.607Z,10.00
2023-02-22T09:00:39.152Z,10.12
2023-02-22T09:03:13.093Z,10.30
2023-02-22T09:05:40.676Z,10.48
2023-02-22T09:08:07.373Z,10.63
2023-02-22T09:10:35.054Z,10.75
2023-02-22T09:13:02.535Z,10.87
2023-02-22T09:15:30.112Z,10.97
2023-02-22T09:17:57.490Z,11.02
2023-02-22T09:20:25.026Z,11.08
2023-02-22T09:22:53.093Z,11.10
2023-02-22T09:25:22.786Z,11.11
2023-02-22T09:27:51.305Z,11.09
2023-02-22T09:30:33.354Z,11.11
2023-02-22T09:33:03.588Z,11.11
2023-02-22T09:35:30.730Z,11.10
2023-02-22T09:37:58.958Z,11.11
2023-02-22T09:40:30.086Z,11.16
2023-02-22T09:43:08.098Z,11.25
2023-02-22T09:45:44.921Z,11.39
2023-02-22T09:48:21.775Z,11.50
2023-02-22T09:50:52.866Z,11.58
2023-02-22T09:53:30.859Z,11.71
2023-02-22T09:56:04.609Z,11.83
2023-02-22T09:58:36.715Z,11.95
2023-02-22T10:01:32.027Z,12.04
2023-02-22T10:04:18.719Z,12.11
2023-02-22T10:07:14.211Z,12.20
2023-02-22T10:09:43.385Z,12.32
2023-02-22T10:12:15.217Z,12.41
2023-02-22T10:15:13.083Z,12.47
2023-02-22T10:18:17.509Z,12.54
2023-02-22T10:21:02.379Z,12.61
2023-02-22T10:23:55.966Z,12.61
2023-02-22T10:26:26.780Z,12.71
2023-02-22T10:29:17.360Z,12.82
2023-02-22T10:31:52.374Z,12.83
2023-02-22T10:34:29.815Z,12.90
2023-02-22T10:37:18.085Z,12.94
2023-02-22T10:39:46.782Z,13.02
2023-02-22T10:42:13.934Z,13.13
2023-02-22T10:44:40.820Z,13.25
2023-02-22T10:47:10.878Z,13.43
2023-02-22T10:49:44.431Z,13.60
2023-02-22T10:52:20.179Z,13.76
2023-02-22T10:54:50.299Z,13.86
2023-02-22T10:57:22.894Z,13.99
2023-02-22T10:59:51.995Z,14.11
2023-02-22T11:02:21.462Z,14.21
2023-02-22T11:04:53.559Z,14.36
2023-02-22T11:07:29.872Z,14.47
2023-02-22T11:09:59.957Z,14.49
2023-02-22T11:12:29.930Z,14.51
2023-02-22T11:14:57.160Z,14.63
2023-02-22T11:17:34.600Z,14.81
2023-02-22T11:20:01.715Z,14.95
2023-02-22T11:22:41.195Z,14.99
2023-02-22T11:25:08.658Z,15.02
2023-02-22T11:27:40.302Z,15.09
2023-02-22T11:30:17.678Z,15.13
2023-02-22T11:32:48.444Z,15.19
2023-02-22T11:35:29.905Z,15.24
2023-02-22T11:38:12.373Z,15.29
2023-02-22T11:40:40.158Z,15.35
2023-02-22T11:43:12.049Z,15.43
2023-02-22T11:45:44.153Z,15.52
2023-02-22T11:48:21.005Z,15.65
2023-02-22T11:51:16.509Z,15.76
2023-02-22T11:54:25.438Z,15.91
2023-02-22T11:56:55.854Z,16.08
2023-02-22T12:00:01.806Z,16.21
2023-02-22T12:02:57.169Z,16.37
2023-02-22T12:05:40.498Z,16.50
2023-02-22T12:08:36.723Z,16.61
2023-02-22T12:11:10.133Z,16.74
2023-02-22T12:13:59.664Z,16.87
2023-02-22T12:16:45.026Z,17.06
2023-02-22T12:19:34.987Z,17.23
2023-02-22T12:22:09.935Z,17.35
2023-02-22T12:24:46.826Z,17.40
2023-02-22T12:27:37.050Z,17.38
2023-02-22T12:30:12.864Z,17.44
2023-02-22T12:32:50.709Z,17.52
2023-02-22T12:35:37.403Z,17.73
2023-02-22T12:38:25.860Z,17.82
2023-02-22T12:40:57.107Z,17.86
2023-02-22T12:43:35.607Z,17.97
2023-02-22T12:46:21.220Z,18.11
2023-02-22T12:49:00.718Z,18.18
2023-02-22T12:51:55.533Z,18.31
2023-02-22T12:54:31.781Z,18.41
2023-02-22T12:57:09.923Z,18.61
2023-02-22T12:59:47.753Z,18.80
2023-02-22T13:02:37.000Z,19.02
2023-02-22T13:05:03.823Z,19.09
2023-02-22T13:07:46.566Z,19.07
2023-02-22T13:10:19.307Z,19.08
2023-02-22T13:12:52.536Z,19.07
2023-02-22T13:15:42.876Z,18.98
2023-02-22T13:18:19.298Z,18.75
2023-02-22T13:20:59.037Z,18.53
2023-02-22T13:23:39.060Z,18.38
2023-02-22T13:26:36.243Z,18.26
2023-02-22T13:29:13.794Z,18.11
2023-02-22T13:31:54.857Z,18.05
2023-02-22T13:34:45.515Z,17.87
2023-02-22T13:37:27.809Z,17.72
2023-02-22T13:40:16.877Z,17.67
2023-02-22T13:42:59.703Z,17.63
2023-02-22T13:45:50.939Z,17.51
2023-02-22T13:48:33.916Z,17.43
2023-02-22T13:51:30.188Z,17.45
2023-02-22T13:54:07.543Z,17.51
2023-02-22T13:56:34.832Z,17.64
2023-02-22T13:59:04.268Z,17.73
2023-02-22T14:01:47.927Z,17.78
2023-02-22T14:04:22.880Z,17.88
2023-02-22T14:07:25.810Z,18.06
2023-02-22T14:09:57.502Z,18.25
2023-02-22T14:12:30.256Z,18.42
2023-02-22T14:15:28.733Z,18.56
2023-02-22T14:18:02.274Z,18.88
2023-02-22T14:20:37.118Z,19.05
2023-02-22T14:23:25.817Z,19.15
2023-02-22T14:25:53.527Z,19.08
2023-02-22T14:28:37.325Z,18.95
2023-02-22T14:31:25.513Z,18.80
2023-02-22T14:34:13.967Z,18.71
2023-02-22T14:37:08.022Z,18.68
2023-02-22T14:39:51.203Z,18.79
2023-02-22T14:42:34.023Z,18.86
2023-02-22T14:45:37.001Z,18.88
2023-02-22T14:48:46.966Z,18.91
2023-02-22T14:51:34.114Z,18.79
2023-02-22T14:54:42.148Z,18.74
2023-02-22T14:57:35.927Z,18.69
2023-02-22T15:00:29.633Z,18.62
2023-02-22T15:03:06.907Z,18.59
2023-02-22T15:05:45.842Z,18.54
2023-02-22T15:08:31.597Z,18.44
2023-02-22T15:11:52.347Z,18.38
2023-02-22T15:14:43.783Z,18.27
2023-02-22T15:17:54.534Z,18.20
2023-02-22T15:20:54.623Z,18.17
2023-02-22T15:23:32.751Z,18.05
2023-02-22T15:26:07.823Z,17.91
2023-02-22T15:29:04.638Z,17.83
2023-02-22T15:31:39.265Z,17.75
2023-02-22T15:34:24.647Z,17.66
2023-02-22T15:36:58.745Z,17.57
2023-02-22T15:39:33.172Z,17.49
2023-02-22T15:42:05.980Z,17.44
2023-02-22T15:44:40.153Z,17.36
2023-02-22T15:47:21.055Z,17.21
2023-02-22T15:50:21.317Z,17.00
2023-02-22T15:52:59.465Z,16.79
2023-02-22T15:55:38.269Z,16.57
2023-02-22T15:58:16.959Z,16.37
2023-02-22T16:00:47.093Z,16.17
2023-02-22T16:03:16.794Z,15.97
2023-02-22T16:05:49.503Z,15.77
2023-02-22T16:08:19.408Z,15.57
2023-02-22T16:11:02.331Z,15.40
2023-02-22T16:13:33.174Z,15.23
2023-02-22T16:16:23.589Z,15.04
2023-02-22T16:18:51.527Z,14.76
2023-02-22T16:21:23.642Z,14.50
2023-02-22T16:24:01.349Z,14.27
2023-02-22T16:26:34.446Z,14.04
2023-02-22T16:29:07.494Z,13.84
2023-02-22T16:31:36.976Z,13.67
2023-02-22T16:34:09.072Z,13.53
2023-02-22T16:36:45.479Z,13.40
2023-02-22T16:39:19.597Z,13.22
2023-02-22T16:41:46.706Z,13.03
2023-02-22T16:44:13.699Z,12.85
2023-02-22T16:46:41.950Z,12.71
2023-02-22T16:49:13.148Z,12.55
2023-02-22T16:51:47.578Z,12.37
2023-02-22T16:54:19.753Z,12.22
2023-02-22T16:56:46.477Z,12.08
2023-02-22T16:59:15.413Z,11.97
2023-02-22T17:01:42.961Z,11.85
2023-02-22T17:04:15.934Z,11.74
2023-02-22T17:06:42.689Z,11.65
2023-02-22T17:09:10.017Z,11.58
2023-02-22T17:11:37.910Z,11.52
2023-02-22T17:14:05.828Z,11.45
2023-02-22T17:16:32.873Z,11.37
2023-02-22T17:19:00.157Z,11.29
2023-02-22T17:21:27.130Z,11.20
2023-02-22T17:23:54.069Z,11.09
2023-02-22T17:26:20.868Z,11.01
2023-02-22T17:28:47.544Z,10.93
2023-02-22T17:31:26.557Z,10.86
2023-02-22T17:33:55.034Z,10.78
2023-02-22T17:36:23.478Z,10.71
2023-02-22T17:38:50.228Z,10.64
2023-02-22T17:41:16.713Z,10.58
2023-02-22T17:43:43.777Z,10.53
2023-02-22T17:46:10.591Z,10.46
2023-02-22T17:48:38.194Z,10.40
2023-02-22T17:51:06.917Z,10.34
2023-02-22T17:53:33.976Z,10.31
2023-02-22T17:56:06.127Z,10.28
2023-02-22T17:58:33.270Z,10.24
2023-02-22T18:01:00.277Z,10.21
2023-02-22T18:03:29.049Z,10.19
2023-02-22T18:05:58.018Z,10.17
2023-02-22T18:08:29.770Z,10.15
2023-02-22T18:10:56.901Z,10.11
2023-02-22T18:13:26.461Z,10.08
2023-02-22T18:15:53.699Z,10.03
2023-02-22T18:18:22.207Z,9.98
2023-02-22T18:20:51.606Z,9.93
2023-02-22T18:23:22.264Z,9.88
2023-02-22T18:26:08.967Z,9.85
2023-02-22T18:28:37.616Z,9.80
2023-02-22T18:31:15.702Z,9.76
2023-02-22T18:33:43.665Z,9.73
2023-02-22T18:36:14.206Z,9.70
2023-02-22T18:38:43.010Z,9.67
2023-02-22T18:41:12.234Z,9.64
2023-02-22T18:43:39.885Z,9.61
2023-02-22T18:46:15.043Z,9.58
2023-02-22T18:48:42.883Z,9.57
2023-02-22T18:51:11.792Z,9.54
2023-02-22T18:53:40.963Z,9.51
2023-02-22T18:56:10.532Z,9.48
2023-02-22T18:58:38.845Z,9.45
2023-02-22T19:01:07.279Z,9.41
2023-02-22T19:03:38.378Z,9.37
2023-02-22T19:06:10.694Z,9.32
2023-02-22T19:08:42.518Z,9.30
2023-02-22T19:11:19.057Z,9.26
2023-02-22T19:13:47.488Z,9.25
2023-02-22T19:16:16.558Z,9.21
2023-02-22T19:18:44.159Z,9.18
2023-02-22T19:21:13.892Z,9.15
2023-02-22T19:23:48.277Z,9.13
2023-02-22T19:26:20.618Z,9.10
2023-02-22T19:29:04.991Z,9.10
2023-02-22T19:31:33.922Z,9.07
2023-02-22T19:34:03.811Z,9.04
2023-02-22T19:36:35.317Z,9.02
2023-02-22T19:39:02.257Z,8.99
2023-02-22T19:41:29.604Z,8.98
2023-02-22T19:43:56.751Z,8.96
2023-02-22T19:46:24.902Z,8.93
2023-02-22T19:48:52.936Z,8.92
2023-02-22T19:51:26.386Z,8.90
2023-02-22T19:53:55.894Z,8.88
2023-02-22T19:56:27.226Z,8.87
2023-02-22T19:58:56.568Z,8.85
2023-02-22T20:01:26.423Z,8.84
2023-02-22T20:03:55.132Z,8.81
2023-02-22T20:06:26.297Z,8.78
2023-02-22T20:08:54.677Z,8.75
2023-02-22T20:11:22.843Z,8.71
2023-02-22T20:13:50.337Z,8.68
2023-02-22T20:16:17.299Z,8.65
2023-02-22T20:18:45.275Z,8.64
2023-02-22T20:21:18.657Z,8.61
2023-02-22T20:23:49.209Z,8.59
2023-02-22T20:26:26.434Z,8.57
2023-02-22T20:28:55.207Z,8.55
2023-02-22T20:31:23.043Z,8.53
2023-02-22T20:33:53.971Z,8.49
2023-02-22T20:36:24.219Z,8.45
2023-02-22T20:38:56.786Z,8.44
2023-02-22T20:41:26.987Z,8.42
2023-02-22T20:43:55.712Z,8.40
2023-02-22T20:46:23.840Z,8.38
2023-02-22T20:48:55.686Z,8.37
2023-02-22T20:51:23.371Z,8.34
2023-02-22T20:53:54.053Z,8.33
2023-02-22T20:56:23.817Z,8.32
2023-02-22T20:58:52.654Z,8.29
2023-02-22T21:01:20.832Z,8.26
2023-02-22T21:03:48.677Z,8.25
2023-02-22T21:06:17.036Z,8.25
2023-02-22T21:08:45.245Z,8.22
2023-02-22T21:11:14.628Z,8.20
2023-02-22T21:13:41.715Z,8.18
2023-02-22T21:16:15.258Z,8.17
2023-02-22T21:18:42.210Z,8.16
2023-02-22T21:21:10.434Z,8.14
2023-02-22T21:23:38.485Z,8.10
2023-02-22T21:26:05.334Z,8.05
2023-02-22T21:28:50.607Z,8.02
2023-02-22T21:31:19.188Z,8.01
2023-02-22T21:33:49.456Z,8.02
2023-02-22T21:36:16.549Z,8.02
2023-02-22T21:38:53.337Z,8.03
2023-02-22T21:41:21.615Z,8.06
2023-02-22T21:43:52.169Z,8.06
2023-02-22T21:46:20.019Z,8.04
2023-02-22T21:48:50.250Z,8.03
2023-02-22T21:51:19.970Z,8.02
2023-02-22T21:53:49.446Z,8.00
2023-02-22T21:56:19.005Z,7.96
2023-02-22T21:58:47.039Z,7.94
2023-02-22T22:01:17.587Z,7.90
2023-02-22T22:03:45.830Z,7.86
2023-02-22T22:06:13.960Z,7.82
2023-02-22T22:08:42.207Z,7.76
2023-02-22T22:11:14.875Z,7.68
2023-02-22T22:13:42.539Z,7.61
2023-02-22T22:16:18.624Z,7.57
2023-02-22T22:18:46.764Z,7.53
2023-02-22T22:21:22.672Z,7.49
2023-02-22T22:23:54.176Z,7.46
2023-02-22T22:26:24.443Z,7.42
2023-02-22T22:28:54.384Z,7.39
2023-02-22T22:31:23.722Z,7.36
2023-02-22T22:33:50.907Z,7.32
2023-02-22T22:36:21.240Z,7.30
2023-02-22T22:38:48.466Z,7.26
2023-02-22T22:41:17.665Z,7.23
2023-02-22T22:43:48.220Z,7.19
2023-02-22T22:46:16.825Z,7.17
2023-02-22T22:48:46.799Z,7.15
2023-02-22T22:51:21.200Z,7.14
2023-02-22T22:53:49.709Z,7.13
2023-02-22T22:56:57.237Z,7.12
2023-02-22T22:59:24.320Z,7.11
2023-02-22T23:01:52.356Z,7.09
2023-02-22T23:04:19.260Z,7.08
2023-02-22T23:06:49.866Z,7.06
2023-02-22T23:09:21.672Z,7.04
2023-02-22T23:11:56.995Z,7.01
2023-02-22T23:14:30.974Z,6.98
2023-02-22T23:17:03.141Z,6.94
2023-02-22T23:19:35.555Z,6.91
2023-02-22T23:22:05.223Z,6.85
2023-02-22T23:24:36.022Z,6.79
2023-02-22T23:27:06.912Z,6.69
2023-02-22T23:29:36.730Z,6.65
2023-02-22T23:32:05.750Z,6.61
2023-02-22T23:34:32.940Z,6.60
2023-02-22T23:36:59.882Z,6.59
2023-02-22T23:39:27.381Z,6.58
2023-02-22T23:42:01.719Z,6.58
2023-02-22T23:44:29.472Z,6.59
2023-02-22T23:46:56.874Z,6.59
2023-02-22T23:49:27.165Z,6.60
2023-02-22T23:51:54.059Z,6.59
2023-02-22T23:54:25.350Z,6.57
2023-02-22T23:57:02.415Z,6.56
2023-02-22T23:59:30.500Z,6.55
